createdAt,value
2022-08-19T00:02:15.245Z,67.17
2022-08-19T00:04:42.586Z,66.43
2022-08-19T00:07:10.037Z,66.11
2022-08-19T00:09:37.409Z,71.63
2022-08-19T00:12:05.454Z,72.52
2022-08-19T00:14:33.106Z,67.24
2022-08-19T00:17:01.914Z,75.25
2022-08-19T00:19:29.559Z,72.58
2022-08-19T00:21:57.187Z,72.44
2022-08-19T00:24:25.179Z,72.51
2022-08-19T00:26:53.334Z,68.13
2022-08-19T00:29:22.385Z,68.75
2022-08-19T00:31:51.099Z,75.24
2022-08-19T00:34:18.369Z,71.79
2022-08-19T00:36:46.625Z,72.41
2022-08-19T00:39:16.433Z,72.97
2022-08-19T00:41:49.817Z,74.40
2022-08-19T00:44:26.802Z,81.77
2022-08-19T00:46:58.374Z,77.01
2022-08-19T00:49:36.988Z,74.90
2022-08-19T00:52:10.858Z,79.31
2022-08-19T00:54:40.078Z,77.90
2022-08-19T00:57:14.490Z,71.32
2022-08-19T00:59:56.390Z,63.97
2022-08-19T01:02:30.830Z,68.01
2022-08-19T01:04:58.464Z,60.38
2022-08-19T01:07:25.947Z,64.99
2022-08-19T01:09:53.608Z,61.42
2022-08-19T01:12:21.458Z,64.65
2022-08-19T01:14:49.621Z,61.66
2022-08-19T01:17:17.418Z,63.06
2022-08-19T01:19:47.889Z,60.31
2022-08-19T01:22:45.366Z,63.27
2022-08-19T01:25:16.707Z,62.31
2022-08-19T01:27:49.123Z,67.12
2022-08-19T01:30:25.763Z,63.68
2022-08-19T01:32:54.399Z,56.58
2022-08-19T01:35:24.490Z,57.59
2022-08-19T01:37:56.317Z,61.30
2022-08-19T01:40:28.579Z,59.40
2022-08-19T01:42:56.547Z,54.23
2022-08-19T01:45:28.472Z,58.50
2022-08-19T01:48:02.069Z,60.16
2022-08-19T01:50:32.171Z,57.58
2022-08-19T01:53:07.827Z,59.00
2022-08-19T01:55:41.845Z,60.08
2022-08-19T01:58:16.011Z,56.96
2022-08-19T02:00:44.394Z,56.90
2022-08-19T02:03:12.253Z,51.59
2022-08-19T02:05:41.029Z,57.45
2022-08-19T02:08:08.845Z,57.96
2022-08-19T02:11:01.085Z,55.14
2022-08-19T02:13:28.754Z,53.53
2022-08-19T02:15:56.458Z,57.38
2022-08-19T02:18:27.945Z,57.35
2022-08-19T02:20:56.199Z,58.07
2022-08-19T02:23:23.319Z,58.60
2022-08-19T02:25:52.525Z,58.09
2022-08-19T02:28:19.736Z,58.45
2022-08-19T02:30:48.990Z,59.05
2022-08-19T02:33:17.129Z,58.66
2022-08-19T02:35:46.732Z,58.09
2022-08-19T02:38:26.625Z,58.63
2022-08-19T02:40:58.755Z,58.86
2022-08-19T02:43:27.138Z,57.97
2022-08-19T02:45:54.753Z,58.10
2022-08-19T02:48:24.723Z,59.40
2022-08-19T02:50:55.988Z,58.85
2022-08-19T02:53:27.609Z,58.00
2022-08-19T02:55:55.120Z,60.38
2022-08-19T02:58:25.148Z,58.47
2022-08-19T03:00:56.349Z,54.67
2022-08-19T03:03:24.441Z,58.87
2022-08-19T03:05:57.004Z,58.07
2022-08-19T03:08:26.739Z,59.65
2022-08-19T03:10:54.794Z,57.18
2022-08-19T03:13:22.175Z,59.39
2022-08-19T03:15:50.038Z,60.90
2022-08-19T03:18:18.289Z,59.16
2022-08-19T03:20:49.842Z,58.30
2022-08-19T03:23:17.625Z,60.92
2022-08-19T03:26:03.010Z,62.45
2022-08-19T03:28:36.363Z,61.56
2022-08-19T03:31:43.770Z,58.92
2022-08-19T03:33:55.659Z,61.17
2022-08-19T03:36:26.304Z,61.48
2022-08-19T03:39:01.140Z,60.74
2022-08-19T03:41:34.279Z,60.87
2022-08-19T03:44:19.409Z,61.72
2022-08-19T03:46:53.843Z,61.63
2022-08-19T03:49:21.576Z,61.44
2022-08-19T03:51:56.297Z,61.72
2022-08-19T03:54:26.073Z,61.82
2022-08-19T03:56:56.323Z,60.46
2022-08-19T03:59:31.843Z,60.49
2022-08-19T04:02:03.219Z,62.64
2022-08-19T04:04:31.874Z,61.46
2022-08-19T04:06:59.662Z,59.86
2022-08-19T04:09:27.907Z,61.17
2022-08-19T04:11:57.550Z,61.83
2022-08-19T04:14:31.193Z,62.03
2022-08-19T04:17:00.831Z,60.11
2022-08-19T04:19:31.358Z,59.97
2022-08-19T04:21:59.464Z,60.90
2022-08-19T04:24:26.978Z,61.87
2022-08-19T04:26:54.508Z,61.51
2022-08-19T04:29:25.920Z,59.05
2022-08-19T04:31:56.590Z,61.31
2022-08-19T04:34:27.638Z,62.02
2022-08-19T04:36:57.357Z,61.58
2022-08-19T04:39:50.192Z,62.01
2022-08-19T04:42:37.601Z,62.44
2022-08-19T04:45:12.457Z,61.51
2022-08-19T04:47:48.090Z,62.37
2022-08-19T04:50:27.485Z,62.09
2022-08-19T04:52:56.329Z,59.88
2022-08-19T04:55:26.432Z,60.12
2022-08-19T04:57:55.044Z,60.91
2022-08-19T05:00:22.344Z,58.32
2022-08-19T05:02:50.061Z,60.40
2022-08-19T05:05:18.331Z,60.36
2022-08-19T05:07:45.764Z,60.45
2022-08-19T05:10:13.869Z,60.70
2022-08-19T05:12:41.199Z,61.04
2022-08-19T05:15:12.018Z,58.89
2022-08-19T05:17:59.209Z,61.21
2022-08-19T05:20:45.124Z,59.60
2022-08-19T05:23:20.471Z,59.76
2022-08-19T05:25:51.289Z,60.29
2022-08-19T05:28:20.670Z,61.01
2022-08-19T05:30:49.529Z,60.24
2022-08-19T05:33:16.648Z,60.95
2022-08-19T05:35:44.866Z,60.09
2022-08-19T05:38:12.168Z,61.42
2022-08-19T05:40:41.222Z,60.24
2022-08-19T05:43:09.258Z,61.39
2022-08-19T05:45:41.452Z,61.16
2022-08-19T05:48:12.118Z,61.81
2022-08-19T05:50:42.070Z,60.53
2022-08-19T05:53:09.902Z,61.54
2022-08-19T05:55:39.493Z,59.93
2022-08-19T05:58:08.481Z,60.09
2022-08-19T06:00:37.995Z,61.14
2022-08-19T06:03:12.537Z,61.71
2022-08-19T06:05:44.828Z,61.29
2022-08-19T06:08:20.836Z,59.43
2022-08-19T06:11:33.686Z,60.26
2022-08-19T06:14:18.158Z,60.46
2022-08-19T06:16:46.452Z,61.59
2022-08-19T06:19:20.277Z,60.69
2022-08-19T06:21:49.980Z,61.86
2022-08-19T06:24:22.364Z,61.12
2022-08-19T06:26:56.695Z,61.48
2022-08-19T06:29:28.199Z,59.75
2022-08-19T06:31:58.904Z,61.02
2022-08-19T06:34:28.869Z,62.00
2022-08-19T06:36:57.667Z,67.08
2022-08-19T06:39:28.964Z,68.92
2022-08-19T06:42:00.381Z,67.03
2022-08-19T06:44:35.332Z,69.30
2022-08-19T06:47:23.137Z,69.21
2022-08-19T06:50:05.262Z,69.07
2022-08-19T06:52:36.819Z,67.66
2022-08-19T06:55:07.024Z,67.41
2022-08-19T06:57:35.312Z,70.80
2022-08-19T07:00:05.904Z,76.45
2022-08-19T07:02:34.260Z,86.76
2022-08-19T07:05:06.630Z,85.86
2022-08-19T07:07:36.023Z,95.06
2022-08-19T07:10:07.707Z,97.51
2022-08-19T07:12:39.053Z,100.00
2022-08-19T07:15:09.508Z,100.00
2022-08-19T07:17:39.615Z,100.00
2022-08-19T07:20:10.005Z,100.00
2022-08-19T07:22:41.664Z,100.00
2022-08-19T07:25:10.652Z,100.00
2022-08-19T07:27:39.531Z,100.00
2022-08-19T07:30:11.513Z,100.00
2022-08-19T07:32:40.890Z,100.00
2022-08-19T07:35:09.646Z,100.00
2022-08-19T07:37:38.182Z,100.00
2022-08-19T07:40:08.677Z,100.00
2022-08-19T07:42:36.208Z,100.00
2022-08-19T07:45:04.448Z,100.00
2022-08-19T07:47:47.459Z,100.00
2022-08-19T07:50:20.795Z,100.00
2022-08-19T07:52:50.762Z,100.00
2022-08-19T07:55:42.025Z,100.00
2022-08-19T07:58:17.116Z,100.00
2022-08-19T08:00:47.725Z,100.00
2022-08-19T08:03:20.046Z,100.00
2022-08-19T08:06:06.213Z,100.00
2022-08-19T08:08:51.737Z,100.00
2022-08-19T08:11:21.980Z,100.00
2022-08-19T08:14:00.733Z,100.00
2022-08-19T08:16:32.872Z,100.00
2022-08-19T08:19:02.192Z,100.00
2022-08-19T08:21:29.418Z,100.00
2022-08-19T08:23:56.838Z,100.00
2022-08-19T08:26:24.745Z,100.00
2022-08-19T08:28:54.295Z,100.00
2022-08-19T08:31:21.637Z,100.00
2022-08-19T08:33:48.906Z,100.00
2022-08-19T08:36:16.954Z,100.00
2022-08-19T08:38:48.181Z,100.00
2022-08-19T08:41:58.354Z,100.00
2022-08-19T08:44:37.893Z,100.00
2022-08-19T08:47:13.366Z,100.00
2022-08-19T08:49:51.186Z,100.00
2022-08-19T08:52:32.078Z,100.00
2022-08-19T08:55:10.275Z,100.00
2022-08-19T08:57:55.792Z,100.00
2022-08-19T09:00:28.548Z,100.00
2022-08-19T09:02:58.300Z,100.00
2022-08-19T09:06:01.768Z,100.00
2022-08-19T09:08:44.114Z,100.00
2022-08-19T09:11:42.219Z,100.00
2022-08-19T09:14:53.592Z,100.00
2022-08-19T09:17:31.903Z,100.00
2022-08-19T09:20:11.285Z,100.00
2022-08-19T09:22:41.452Z,100.00
2022-08-19T09:25:12.432Z,100.00
2022-08-19T09:27:43.625Z,100.00
2022-08-19T09:30:23.608Z,100.00
2022-08-19T09:32:53.652Z,100.00
2022-08-19T09:35:24.745Z,100.00
2022-08-19T09:37:57.424Z,100.00
2022-08-19T09:40:31.892Z,100.00
2022-08-19T09:43:11.417Z,100.00
2022-08-19T09:45:40.991Z,100.00
2022-08-19T09:48:09.477Z,100.00
2022-08-19T09:50:52.044Z,100.00
2022-08-19T09:53:23.354Z,100.00
2022-08-19T09:55:55.630Z,100.00
2022-08-19T09:58:27.522Z,100.00
2022-08-19T10:00:56.523Z,100.00
2022-08-19T10:03:25.439Z,100.00
2022-08-19T10:06:05.668Z,100.00
2022-08-19T10:08:50.225Z,98.12
2022-08-19T10:11:28.673Z,98.91
2022-08-19T10:14:06.825Z,99.40
2022-08-19T10:16:39.570Z,98.63
2022-08-19T10:19:07.295Z,98.80
2022-08-19T10:21:35.337Z,94.53
2022-08-19T10:24:06.214Z,87.18
2022-08-19T10:29:39.895Z,86.69
2022-08-19T10:32:14.312Z,85.74
2022-08-19T10:34:48.321Z,94.48
2022-08-19T10:37:29.076Z,93.21
2022-08-19T10:39:58.716Z,90.51
2022-08-19T10:42:25.842Z,100.00
2022-08-19T10:44:52.859Z,100.00
2022-08-19T10:47:25.005Z,100.00
2022-08-19T10:50:13.803Z,100.00
2022-08-19T10:52:49.294Z,100.00
2022-08-19T10:55:41.659Z,100.00
2022-08-19T10:58:18.094Z,100.00
2022-08-19T11:00:54.430Z,100.00
2022-08-19T11:03:22.618Z,100.00
2022-08-19T11:06:01.986Z,100.00
2022-08-19T11:08:29.439Z,100.00
2022-08-19T11:11:01.548Z,100.00
2022-08-19T11:13:38.827Z,100.00
2022-08-19T11:16:14.778Z,100.00
2022-08-19T11:18:49.198Z,100.00
2022-08-19T11:21:37.210Z,100.00
2022-08-19T11:24:10.141Z,100.00
2022-08-19T11:26:39.614Z,100.00
2022-08-19T11:29:12.273Z,100.00
2022-08-19T11:31:45.420Z,100.00
2022-08-19T11:34:21.904Z,100.00
2022-08-19T11:36:51.591Z,100.00
2022-08-19T11:39:22.939Z,100.00
2022-08-19T11:41:50.494Z,100.00
2022-08-19T11:44:18.211Z,100.00
2022-08-19T11:46:47.101Z,100.00
2022-08-19T11:49:17.318Z,100.00
2022-08-19T11:51:44.683Z,100.00
2022-08-19T11:54:13.740Z,100.00
2022-08-19T11:56:42.538Z,100.00
2022-08-19T11:59:14.636Z,100.00
2022-08-19T12:01:43.691Z,100.00
2022-08-19T12:04:12.240Z,100.00
2022-08-19T12:06:42.140Z,100.00
2022-08-19T12:09:11.433Z,100.00
2022-08-19T12:11:39.936Z,100.00
2022-08-19T12:14:14.457Z,100.00
2022-08-19T12:16:48.590Z,100.00
2022-08-19T12:19:22.365Z,100.00
2022-08-19T12:21:50.369Z,100.00
2022-08-19T12:24:23.943Z,100.00
2022-08-19T12:26:52.507Z,100.00
2022-08-19T12:29:24.009Z,100.00
2022-08-19T12:31:52.244Z,100.00
2022-08-19T12:34:20.998Z,100.00
2022-08-19T12:36:50.131Z,100.00
2022-08-19T12:39:17.435Z,100.00
2022-08-19T12:41:50.561Z,100.00
2022-08-19T12:44:27.674Z,100.00
2022-08-19T12:46:58.216Z,100.00
2022-08-19T12:52:16.818Z,100.00
2022-08-19T12:54:51.697Z,100.00
2022-08-19T12:57:31.671Z,100.00
2022-08-19T13:00:14.515Z,100.00
2022-08-19T13:02:46.936Z,100.00
2022-08-19T13:05:17.636Z,100.00
2022-08-19T13:07:44.940Z,100.00
2022-08-19T13:10:16.488Z,100.00
2022-08-19T13:12:46.429Z,100.00
2022-08-19T13:15:16.898Z,100.00
2022-08-19T13:17:45.513Z,100.00
2022-08-19T13:20:12.843Z,100.00
2022-08-19T13:22:40.444Z,100.00
2022-08-19T13:25:08.601Z,100.00
2022-08-19T13:27:37.442Z,100.00
2022-08-19T13:30:27.037Z,100.00
2022-08-19T13:33:12.194Z,100.00
2022-08-19T13:35:44.050Z,100.00
2022-08-19T13:38:11.766Z,100.00
2022-08-19T13:40:41.553Z,100.00
2022-08-19T13:43:13.513Z,100.00
2022-08-19T13:45:56.244Z,100.00
2022-08-19T13:48:26.173Z,100.00
2022-08-19T13:50:53.549Z,100.00
2022-08-19T13:53:20.796Z,100.00
2022-08-19T13:55:48.187Z,100.00
2022-08-19T13:58:15.441Z,100.00
2022-08-19T14:00:46.395Z,100.00
2022-08-19T14:03:14.263Z,100.00
2022-08-19T14:05:41.328Z,100.00
2022-08-19T14:08:08.477Z,100.00
2022-08-19T14:10:40.444Z,100.00
2022-08-19T14:13:07.963Z,100.00
2022-08-19T14:15:35.252Z,100.00
2022-08-19T14:18:02.462Z,100.00
2022-08-19T14:20:30.521Z,100.00
2022-08-19T14:22:57.566Z,100.00
2022-08-19T14:25:29.962Z,100.00
2022-08-19T14:27:58.419Z,100.00
2022-08-19T14:30:32.573Z,100.00
2022-08-19T14:33:02.100Z,100.00
2022-08-19T14:35:31.069Z,100.00
2022-08-19T14:37:58.963Z,100.00
2022-08-19T14:40:29.693Z,100.00
2022-08-19T14:43:04.678Z,100.00
2022-08-19T14:45:40.983Z,100.00
2022-08-19T14:48:19.007Z,100.00
2022-08-19T14:50:47.322Z,100.00
2022-08-19T14:53:14.413Z,100.00
2022-08-19T14:55:44.112Z,100.00
2022-08-19T14:58:28.933Z,100.00
2022-08-19T15:01:01.477Z,100.00
2022-08-19T15:03:29.627Z,100.00
2022-08-19T15:06:04.699Z,100.00
2022-08-19T15:08:36.074Z,100.00
2022-08-19T15:11:04.046Z,100.00
2022-08-19T15:13:31.450Z,100.00
2022-08-19T15:15:59.439Z,100.00
2022-08-19T15:18:26.748Z,100.00
2022-08-19T15:20:54.351Z,100.00
2022-08-19T15:23:22.419Z,100.00
2022-08-19T15:25:54.438Z,100.00
2022-08-19T15:28:27.739Z,100.00
2022-08-19T15:30:54.927Z,100.00
2022-08-19T15:33:22.000Z,100.00
2022-08-19T15:35:51.512Z,100.00
2022-08-19T15:38:22.125Z,100.00
2022-08-19T15:40:50.996Z,100.00
2022-08-19T15:43:22.118Z,100.00
2022-08-19T15:45:49.609Z,100.00
2022-08-19T15:48:17.087Z,100.00
2022-08-19T15:50:44.467Z,100.00
2022-08-19T15:53:11.785Z,98.59
2022-08-19T15:55:45.569Z,94.93
2022-08-19T15:58:33.469Z,92.77
2022-08-19T16:01:24.260Z,94.10
2022-08-19T16:04:14.700Z,93.01
2022-08-19T16:06:50.927Z,90.34
2022-08-19T16:09:25.083Z,89.28
2022-08-19T16:12:02.504Z,90.92
2022-08-19T16:14:33.305Z,89.53
2022-08-19T16:17:00.825Z,90.24
2022-08-19T16:19:28.089Z,87.88
2022-08-19T16:21:57.265Z,84.63
2022-08-19T16:24:27.792Z,84.37
2022-08-19T16:26:56.828Z,85.76
2022-08-19T16:29:33.901Z,82.45
2022-08-19T16:32:10.662Z,82.58
2022-08-19T16:34:41.995Z,81.43
2022-08-19T16:37:10.169Z,79.16
2022-08-19T16:39:43.737Z,79.35
2022-08-19T16:42:12.303Z,78.79
2022-08-19T16:44:46.097Z,79.52
2022-08-19T16:47:14.106Z,79.88
2022-08-19T16:49:53.915Z,83.40
2022-08-19T16:52:26.130Z,85.14
2022-08-19T16:54:54.601Z,83.58
2022-08-19T16:57:23.754Z,83.70
2022-08-19T16:59:52.278Z,85.00
2022-08-19T17:02:23.226Z,83.23
2022-08-19T17:04:58.665Z,83.80
2022-08-19T17:07:28.074Z,83.89
2022-08-19T17:09:56.943Z,83.46
2022-08-19T17:12:30.454Z,84.23
2022-08-19T17:15:08.197Z,85.14
2022-08-19T17:17:35.781Z,86.63
2022-08-19T17:20:05.745Z,87.47
2022-08-19T17:22:32.825Z,87.00
2022-08-19T17:25:00.233Z,85.99
2022-08-19T17:27:31.374Z,84.90
2022-08-19T17:30:02.328Z,83.48
2022-08-19T17:32:32.393Z,83.70
2022-08-19T17:34:59.443Z,84.73
2022-08-19T17:37:26.534Z,84.51
2022-08-19T17:39:54.078Z,83.79
2022-08-19T17:42:21.901Z,84.86
2022-08-19T17:44:50.648Z,84.03
2022-08-19T17:47:19.406Z,85.71
2022-08-19T17:49:46.976Z,84.19
2022-08-19T17:52:14.547Z,85.53
2022-08-19T17:54:42.027Z,85.79
2022-08-19T17:57:09.545Z,88.43
2022-08-19T17:59:39.799Z,87.44
2022-08-19T18:02:10.489Z,88.97
2022-08-19T18:04:38.382Z,89.52
2022-08-19T18:07:07.059Z,89.11
2022-08-19T18:09:42.094Z,88.22
2022-08-19T18:12:12.735Z,88.92
2022-08-19T18:14:41.391Z,88.90
2022-08-19T18:17:15.117Z,88.78
2022-08-19T18:19:44.145Z,87.72
2022-08-19T18:22:22.732Z,88.71
2022-08-19T18:24:49.892Z,89.29
2022-08-19T18:27:17.244Z,88.37
2022-08-19T18:29:45.450Z,88.90
2022-08-19T18:32:13.029Z,91.17
2022-08-19T18:34:43.093Z,90.87
2022-08-19T18:37:11.916Z,90.67
2022-08-19T18:40:03.169Z,90.16
2022-08-19T18:42:49.023Z,91.78
2022-08-19T18:45:36.930Z,90.84
2022-08-19T18:48:27.259Z,91.24
2022-08-19T18:51:00.366Z,91.38
2022-08-19T18:53:32.449Z,91.97
2022-08-19T18:55:59.824Z,91.94
2022-08-19T18:58:34.810Z,90.97
2022-08-19T19:01:11.749Z,90.89
2022-08-19T19:03:45.802Z,91.29
2022-08-19T19:06:18.747Z,94.63
2022-08-19T19:08:47.223Z,93.28
2022-08-19T19:11:26.063Z,93.45
2022-08-19T19:13:53.912Z,92.49
2022-08-19T19:16:24.382Z,86.87
2022-08-19T19:18:54.561Z,91.05
2022-08-19T19:21:24.590Z,92.05
2022-08-19T19:23:56.213Z,91.56
2022-08-19T19:26:24.064Z,91.13
2022-08-19T19:28:51.878Z,92.16
2022-08-19T19:31:23.256Z,94.53
2022-08-19T19:33:50.681Z,92.79
2022-08-19T19:36:17.692Z,91.53
2022-08-19T19:38:48.586Z,88.17
2022-08-19T19:41:24.349Z,89.07
2022-08-19T19:44:29.926Z,91.21
2022-08-19T19:46:48.808Z,91.10
2022-08-19T19:49:16.128Z,92.07
2022-08-19T19:51:43.614Z,88.24
2022-08-19T19:54:13.712Z,88.89
2022-08-19T19:56:48.534Z,90.90
2022-08-19T19:59:17.086Z,92.07
2022-08-19T20:01:46.136Z,89.59
2022-08-19T20:04:16.357Z,91.96
2022-08-19T20:06:45.687Z,93.90
2022-08-19T20:09:19.534Z,93.50
2022-08-19T20:11:55.062Z,92.49
2022-08-19T20:14:31.443Z,90.35
2022-08-19T20:17:00.171Z,92.66
2022-08-19T20:19:34.176Z,91.07
2022-08-19T20:22:01.579Z,92.72
2022-08-19T20:24:33.629Z,93.82
2022-08-19T20:27:02.107Z,92.96
2022-08-19T20:29:39.225Z,92.41
2022-08-19T20:32:10.434Z,94.19
2022-08-19T20:34:39.154Z,94.14
2022-08-19T20:37:09.319Z,92.71
2022-08-19T20:39:38.109Z,83.63
2022-08-19T20:42:10.074Z,88.42
2022-08-19T20:44:37.906Z,82.59
2022-08-19T20:47:05.462Z,85.79
2022-08-19T20:49:32.819Z,90.95
2022-08-19T20:52:00.295Z,91.44
2022-08-19T20:54:27.998Z,91.70
2022-08-19T20:56:55.249Z,92.81
2022-08-19T21:01:53.686Z,90.36
2022-08-19T21:04:21.887Z,88.68
2022-08-19T21:06:50.174Z,88.38
2022-08-19T21:09:17.432Z,87.87
2022-08-19T21:11:44.487Z,89.00
2022-08-19T21:14:12.752Z,81.91
2022-08-19T21:16:39.819Z,86.26
2022-08-19T21:19:07.428Z,88.63
2022-08-19T21:21:34.971Z,87.78
2022-08-19T21:24:02.242Z,77.83
2022-08-19T21:26:29.306Z,89.25
2022-08-19T21:28:56.347Z,86.50
2022-08-19T21:31:23.370Z,85.39
2022-08-19T21:33:50.414Z,92.50
2022-08-19T21:36:17.545Z,87.05
2022-08-19T21:38:44.566Z,93.62
2022-08-19T21:41:11.910Z,84.47
2022-08-19T21:43:39.659Z,89.38
2022-08-19T21:46:07.163Z,89.43
2022-08-19T21:48:34.444Z,92.20
2022-08-19T21:51:01.535Z,92.55
2022-08-19T21:53:31.483Z,90.41
2022-08-19T21:56:03.770Z,91.43
2022-08-19T21:58:30.987Z,88.07
2022-08-19T22:01:06.160Z,74.84
2022-08-19T22:03:39.253Z,82.80
2022-08-19T22:06:06.937Z,91.85
2022-08-19T22:08:34.475Z,92.75
2022-08-19T22:11:04.777Z,89.74
2022-08-19T22:13:40.009Z,88.18
2022-08-19T22:16:09.581Z,89.36
2022-08-19T22:18:36.929Z,91.21
2022-08-19T22:21:11.218Z,90.39
2022-08-19T22:23:41.626Z,89.83
2022-08-19T22:26:09.308Z,92.42
2022-08-19T22:28:37.358Z,88.45
2022-08-19T22:31:05.643Z,90.17
2022-08-19T22:33:33.066Z,90.39
2022-08-19T22:36:00.918Z,86.21
2022-08-19T22:38:28.564Z,90.06
2022-08-19T22:40:56.550Z,84.67
2022-08-19T22:43:30.090Z,86.63
2022-08-19T22:45:59.236Z,87.85
2022-08-19T22:48:29.545Z,92.11
2022-08-19T22:51:15.765Z,91.70
2022-08-19T22:53:46.565Z,91.39
2022-08-19T22:56:18.143Z,90.80
2022-08-19T22:58:50.244Z,90.15
2022-08-19T23:01:27.410Z,89.79
2022-08-19T23:03:59.713Z,91.90
2022-08-19T23:06:33.520Z,91.70
2022-08-19T23:09:04.427Z,89.33
2022-08-19T23:11:35.741Z,90.44
2022-08-19T23:14:06.105Z,83.22
2022-08-19T23:16:36.025Z,86.58
2022-08-19T23:19:04.667Z,89.37
2022-08-19T23:21:32.072Z,90.31
2022-08-19T23:23:59.473Z,89.12
2022-08-19T23:26:26.983Z,93.37
2022-08-19T23:29:12.617Z,93.88
2022-08-19T23:31:39.699Z,92.32
2022-08-19T23:34:06.982Z,87.89
2022-08-19T23:36:34.514Z,90.10
2022-08-19T23:39:02.043Z,89.33
2022-08-19T23:41:29.400Z,89.64
2022-08-19T23:43:56.675Z,87.37
2022-08-19T23:46:28.469Z,88.20
2022-08-19T23:48:57.755Z,86.96
2022-08-19T23:51:26.300Z,86.03
2022-08-19T23:53:53.599Z,89.93
2022-08-19T23:56:21.399Z,91.68
2022-08-19T23:58:49.239Z,91.02
